Terminal Aerodrome Forecast
Issued by NWS Pendleton, OR

Home | Current Version | Previous Version | Text Only | Print | Product List | Glossary On
Versions: 1 2 3 4 5 6 7 8 9 10 11 12 13
000
FTUS46 KPDT 292300
TAFPDT
TAF
KPDT 292320Z 3000/3024 32011KT P6SM SCT200
     FM300500 15006KT P6SM SCT150 SCT200
     FM301700 VRB06KT P6SM FEW150 FEW250
     FM302000 31010KT P6SM FEW250=

USA.gov is the U.S. government's official web portal to all federal, state and local government web resources and services.